createdAt,value
2018-12-26T00:02:46.969Z,101542.74
2018-12-26T00:07:50.454Z,101537.58
2018-12-26T00:12:53.935Z,101544.30
2018-12-26T00:17:57.402Z,101549.64
2018-12-26T00:23:00.876Z,101550.44
2018-12-26T00:28:04.339Z,101552.42
2018-12-26T00:33:07.803Z,101555.19
2018-12-26T00:38:11.273Z,101557.76
2018-12-26T00:43:14.739Z,101551.20
2018-12-26T00:48:18.206Z,101539.52
2018-12-26T00:53:21.672Z,101541.50
2018-12-26T00:58:25.142Z,101541.91
2018-12-26T01:03:28.617Z,101543.30
2018-12-26T01:08:32.088Z,101540.31
2018-12-26T01:13:35.559Z,101535.95
2018-12-26T01:18:39.027Z,101526.03
2018-12-26T01:23:42.495Z,101518.52
2018-12-26T01:28:45.963Z,101519.69
2018-12-26T01:33:49.433Z,101520.07
2018-12-26T01:38:52.895Z,101519.48
2018-12-26T01:43:56.363Z,101526.41
2018-12-26T01:48:59.835Z,101529.19
2018-12-26T01:54:03.298Z,101529.78
2018-12-26T01:59:07.054Z,101523.64
2018-12-26T02:04:10.612Z,101525.62
2018-12-26T02:09:15.121Z,101531.16
2018-12-26T02:14:18.592Z,101536.53
2018-12-26T02:19:22.063Z,101537.72
2018-12-26T02:24:25.533Z,101532.37
2018-12-26T02:29:29.018Z,101534.14
2018-12-26T02:34:32.473Z,101532.52
2018-12-26T02:39:35.953Z,101531.38
2018-12-26T02:44:39.411Z,101533.91
2018-12-26T02:49:42.879Z,101532.52
2018-12-26T02:54:46.342Z,101532.91
2018-12-26T02:59:49.812Z,101534.73
2018-12-26T03:04:53.282Z,101534.50
2018-12-26T03:09:56.747Z,101541.43
2018-12-26T03:15:00.498Z,101540.42
2018-12-26T03:20:04.397Z,101546.77
2018-12-26T03:25:07.870Z,101533.70
2018-12-26T03:30:11.336Z,101532.69
2018-12-26T03:35:14.801Z,101527.14
2018-12-26T03:40:18.435Z,101520.22
2018-12-26T03:45:22.270Z,101527.53
2018-12-26T03:50:25.746Z,101501.19
2018-12-26T03:55:29.212Z,101507.52
2018-12-26T04:00:32.754Z,101517.82
2018-12-26T04:05:36.293Z,101507.94
2018-12-26T04:10:39.826Z,101501.59
2018-12-26T04:15:43.568Z,101495.45
2018-12-26T04:20:47.040Z,101501.59
2018-12-26T04:25:50.774Z,101513.48
2018-12-26T04:30:54.246Z,101507.94
2018-12-26T04:35:57.715Z,101522.39
2018-12-26T04:41:01.180Z,101514.66
2018-12-26T04:46:04.646Z,101491.68
2018-12-26T04:51:08.118Z,101506.94
2018-12-26T04:56:11.583Z,101499.80
2018-12-26T05:01:15.047Z,101488.11
2018-12-26T05:06:18.518Z,101458.20
2018-12-26T05:11:21.982Z,101469.88
2018-12-26T05:16:25.450Z,101477.41
2018-12-26T05:21:28.920Z,101481.56
2018-12-26T05:26:32.400Z,101494.84
2018-12-26T05:31:35.866Z,101498.20
2018-12-26T05:36:39.334Z,101502.95
2018-12-26T05:41:42.805Z,101483.33
2018-12-26T05:46:46.275Z,101498.58
2018-12-26T05:51:49.743Z,101497.99
2018-12-26T05:56:53.212Z,101489.47
2018-12-26T06:01:56.684Z,101478.38
2018-12-26T06:07:00.154Z,101479.97
2018-12-26T06:12:03.623Z,101476.98
2018-12-26T06:17:07.091Z,101484.72
2018-12-26T06:22:10.561Z,101474.80
2018-12-26T06:27:14.026Z,101467.87
2018-12-26T06:32:17.490Z,101466.48
2018-12-26T06:37:20.955Z,101477.99
2018-12-26T06:42:24.419Z,101472.44
2018-12-26T06:47:27.890Z,101458.58
2018-12-26T06:52:31.367Z,101471.06
2018-12-26T06:57:34.818Z,101479.55
2018-12-26T07:02:38.288Z,101472.44
2018-12-26T07:07:41.761Z,101486.90
2018-12-26T07:12:45.237Z,101497.19
2018-12-26T07:17:48.704Z,101499.38
2018-12-26T07:22:52.166Z,101483.12
2018-12-26T07:27:55.632Z,101478.38
2018-12-26T07:32:59.101Z,101483.12
2018-12-26T07:38:02.568Z,101475.60
2018-12-26T07:43:06.032Z,101465.69
2018-12-26T07:48:09.791Z,101480.34
2018-12-26T07:53:13.259Z,101465.09
2018-12-26T07:58:17.653Z,101468.46
2018-12-26T08:03:21.589Z,101470.44
2018-12-26T08:08:25.051Z,101469.26
2018-12-26T08:13:28.515Z,101475.98
2018-12-26T08:18:31.986Z,101486.28
2018-12-26T08:23:35.446Z,101481.11
2018-12-26T08:28:38.910Z,101482.84
2018-12-26T08:33:42.380Z,101487.84
2018-12-26T08:38:45.847Z,101496.00
2018-12-26T08:43:49.317Z,101495.70
2018-12-26T08:48:52.779Z,101504.74
2018-12-26T08:53:56.251Z,101496.55
2018-12-26T08:58:59.722Z,101492.88
2018-12-26T09:04:03.191Z,101495.39
2018-12-26T09:09:06.927Z,101495.27
2018-12-26T09:14:10.406Z,101496.20
2018-12-26T09:19:13.875Z,101502.24
2018-12-26T09:24:17.339Z,101502.73
2018-12-26T09:29:20.806Z,101499.43
2018-12-26T09:34:24.274Z,101504.84
2018-12-26T09:39:27.739Z,101508.84
2018-12-26T09:44:31.209Z,101500.38
2018-12-26T09:49:34.676Z,101496.85
2018-12-26T09:54:38.146Z,101503.63
2018-12-26T09:59:41.615Z,101488.21
2018-12-26T10:04:45.082Z,101494.35
2018-12-26T10:09:48.551Z,101497.79
2018-12-26T10:14:52.018Z,101498.59
2018-12-26T10:19:55.492Z,101496.62
2018-12-26T10:24:58.959Z,101496.66
2018-12-26T10:30:02.551Z,101492.71
2018-12-26T10:35:07.151Z,101486.58
2018-12-26T10:40:10.614Z,101481.42
2018-12-26T10:45:14.078Z,101473.11
2018-12-26T10:50:17.542Z,101467.59
2018-12-26T10:55:21.006Z,101458.90
2018-12-26T11:00:24.476Z,101451.77
2018-12-26T11:05:29.590Z,101453.56
2018-12-26T11:10:33.182Z,101450.23
2018-12-26T11:15:36.719Z,101444.30
2018-12-26T11:20:40.187Z,101440.00
2018-12-26T11:25:43.651Z,101439.25
2018-12-26T11:30:47.118Z,101443.83
2018-12-26T11:35:50.588Z,101441.25
2018-12-26T11:40:54.127Z,101430.59
2018-12-26T11:45:57.600Z,101429.41
2018-12-26T11:51:01.070Z,101421.66
2018-12-26T11:56:04.536Z,101418.94
2018-12-26T12:01:08.002Z,101407.63
2018-12-26T12:06:11.545Z,101407.63
2018-12-26T12:11:15.022Z,101412.17
2018-12-26T12:16:18.489Z,101412.17
2018-12-26T12:21:21.956Z,101410.61
2018-12-26T12:26:25.419Z,101410.41
2018-12-26T12:31:28.889Z,101416.34
2018-12-26T12:36:32.359Z,101405.42
2018-12-26T12:41:35.892Z,101409.80
2018-12-26T12:46:39.358Z,101398.69
2018-12-26T12:51:42.824Z,101402.45
2018-12-26T12:56:46.293Z,101395.12
2018-12-26T13:01:49.760Z,101386.41
2018-12-26T13:06:53.257Z,101385.64
2018-12-26T13:11:56.698Z,101389.97
2018-12-26T13:17:00.169Z,101397.91
2018-12-26T13:22:03.652Z,101398.91
2018-12-26T13:27:07.125Z,101402.09
2018-12-26T13:32:10.596Z,101400.91
2018-12-26T13:37:14.068Z,101402.47
2018-12-26T13:42:17.544Z,101403.06
2018-12-26T13:47:21.018Z,101400.50
2018-12-26T13:52:24.482Z,101392.75
2018-12-26T13:57:27.956Z,101400.11
2018-12-26T14:02:31.425Z,101394.94
2018-12-26T14:07:34.901Z,101391.55
2018-12-26T14:12:38.369Z,101402.45
2018-12-26T14:17:41.835Z,101393.92
2018-12-26T14:22:45.302Z,101400.48
2018-12-26T14:27:48.772Z,101394.52
2018-12-26T14:32:52.240Z,101400.66
2018-12-26T14:37:55.704Z,101407.77
2018-12-26T14:42:59.170Z,101404.03
2018-12-26T14:48:02.638Z,101406.98
2018-12-26T14:53:06.123Z,101405.59
2018-12-26T14:58:09.593Z,101409.56
2018-12-26T15:03:13.228Z,101405.98
2018-12-26T15:08:16.701Z,101404.98
2018-12-26T15:13:20.162Z,101401.24
2018-12-26T15:18:23.628Z,101407.76
2018-12-26T15:23:27.095Z,101412.52
2018-12-26T15:28:30.558Z,101412.52
2018-12-26T15:33:34.028Z,101402.63
2018-12-26T15:38:37.489Z,101394.70
2018-12-26T15:43:40.960Z,101391.12
2018-12-26T15:48:44.426Z,101390.92
2018-12-26T15:53:47.892Z,101370.45
2018-12-26T15:58:53.093Z,101376.46
2018-12-26T16:03:56.601Z,101368.52
2018-12-26T16:09:00.067Z,101376.05
2018-12-26T16:14:03.532Z,101380.00
2018-12-26T16:19:07.006Z,101393.88
2018-12-26T16:24:10.472Z,101387.94
2018-12-26T16:29:13.943Z,101391.30
2018-12-26T16:34:17.407Z,101391.09
2018-12-26T16:39:20.875Z,101389.13
2018-12-26T16:44:24.339Z,101389.71
2018-12-26T16:49:27.803Z,101386.14
2018-12-26T16:54:31.270Z,101392.31
2018-12-26T16:59:34.734Z,101394.88
2018-12-26T17:04:38.210Z,101397.06
2018-12-26T17:09:41.681Z,101399.04
2018-12-26T17:14:45.156Z,101401.81
2018-12-26T17:19:48.623Z,101406.77
2018-12-26T17:24:52.112Z,101406.35
2018-12-26T17:29:55.658Z,101402.78
2018-12-26T17:34:59.159Z,101411.31
2018-12-26T17:40:03.198Z,101419.04
2018-12-26T17:45:07.114Z,101422.61
2018-12-26T17:50:42.682Z,101418.86
2018-12-26T17:55:57.860Z,101419.45
2018-12-26T18:01:19.199Z,101419.45
2018-12-26T18:06:22.663Z,101416.91
2018-12-26T18:11:26.136Z,101419.90
2018-12-26T18:16:29.696Z,101423.85
2018-12-26T18:21:33.161Z,101426.23
2018-12-26T18:26:36.622Z,101431.42
2018-12-26T18:31:40.086Z,101439.54
2018-12-26T18:36:43.565Z,101432.03
2018-12-26T18:41:47.030Z,101432.03
2018-12-26T18:46:50.498Z,101434.80
2018-12-26T18:51:53.963Z,101429.06
2018-12-26T18:56:57.432Z,101440.95
2018-12-26T19:02:01.462Z,101445.52
2018-12-26T19:07:04.925Z,101439.78
2018-12-26T19:12:08.399Z,101441.55
2018-12-26T19:17:11.861Z,101443.34
2018-12-26T19:22:15.325Z,101443.55
2018-12-26T19:27:18.798Z,101439.00
2018-12-26T19:32:22.254Z,101440.77
2018-12-26T19:37:25.718Z,101438.98
2018-12-26T19:42:37.145Z,101443.54
2018-12-26T19:47:34.381Z,101448.27
2018-12-26T19:52:37.849Z,101439.56
2018-12-26T19:57:41.319Z,101440.34
2018-12-26T20:02:44.790Z,101444.30
2018-12-26T20:07:48.265Z,101440.94
2018-12-26T20:12:51.729Z,101430.83
2018-12-26T20:17:55.202Z,101436.55
2018-12-26T20:22:58.747Z,101434.96
2018-12-26T20:28:02.210Z,101436.17
2018-12-26T20:33:05.685Z,101433.58
2018-12-26T20:38:09.148Z,101426.83
2018-12-26T20:43:12.616Z,101429.39
2018-12-26T20:48:16.079Z,101429.22
2018-12-26T20:53:19.551Z,101422.06
2018-12-26T20:58:23.022Z,101422.06
2018-12-26T21:03:27.327Z,101426.22
2018-12-26T21:08:30.791Z,101421.27
2018-12-26T21:13:34.260Z,101419.08
2018-12-26T21:18:37.722Z,101416.52
2018-12-26T21:23:41.187Z,101416.91
2018-12-26T21:28:44.651Z,101419.67
2018-12-26T21:33:48.123Z,101423.04
2018-12-26T21:38:51.592Z,101433.13
2018-12-26T21:43:55.059Z,101428.97
2018-12-26T21:48:58.525Z,101434.11
2018-12-26T21:54:01.993Z,101431.34
2018-12-26T21:59:05.454Z,101431.75
2018-12-26T22:04:08.919Z,101429.77
2018-12-26T22:09:12.391Z,101422.43
2018-12-26T22:14:15.848Z,101426.59
2018-12-26T22:19:19.312Z,101425.80
2018-12-26T22:24:22.777Z,101426.98
2018-12-26T22:29:26.244Z,101416.22
2018-12-26T22:34:29.711Z,101416.22
2018-12-26T22:39:33.176Z,101423.20
2018-12-26T22:44:36.646Z,101416.27
2018-12-26T22:49:40.116Z,101419.04
2018-12-26T22:54:43.583Z,101416.27
2018-12-26T22:59:47.122Z,101417.66
2018-12-26T23:04:50.600Z,101408.33
2018-12-26T23:09:54.069Z,101413.88
2018-12-26T23:14:57.535Z,101406.95
2018-12-26T23:20:01.007Z,101414.50
2018-12-26T23:25:04.711Z,101413.88
2018-12-26T23:30:08.346Z,101410.34
2018-12-26T23:35:11.821Z,101412.49
2018-12-26T23:40:15.288Z,101404.59
2018-12-26T23:45:18.770Z,101408.33
2018-12-26T23:50:22.255Z,101407.56
2018-12-26T23:55:25.734Z,101397.86
